2E1GW-13 Weather Reports


Display with metric or nautical units.
time (UTC)temp
F
wind
direction
speed
MPH
gust
MPH
rain 1hr
in
rain 24hr
in
rain mn
in
humidity
%
barometer
mb
20190424043026 52 0.0 0.0 0.00 0.00 0.00 76
20190424040017 53 0.0 0.0 0.00 0.00 0.00 75
20190424033107 53 0.0 0.0 0.00 0.00 0.00 75 820.2
20190424030059 52 0.0 0.0 0.00 0.00 0.00 75 820.5
20190424023051 52 0.0 0.0 0.00 0.00 0.00 74 820.6
20190424020040 52 0.0 0.0 0.00 0.00 0.00 73 820.6
20190424013031 52 0.0 0.0 0.00 0.00 0.00 72 820.8
20190424010021 52 0.0 0.0 0.00 0.00 0.00 71 821.1
20190424003111 53 0.0 0.0 0.00 0.00 0.00 70 821.3
20190424000102 53 0.0 0.0 0.00 0.00 0.00 68 821.4
20190423233052 54 0.0 0.0 0.00 0.00 0.00 67 821.6
20190423230044 54 0.0 0.0 0.00 0.00 0.00 66 821.8
20190423223035 54 0.0 0.0 0.00 0.00 0.00 64 822.1
20190423220025 55 0.0 0.0 0.00 0.00 0.00 62 822.2
20190423213016 56 0.0 0.0 0.00 0.00 0.00 61 822.4
20190423210105 57 0.0 0.0 0.00 0.00 0.00 59 822.7
20190423203055 57 0.0 0.0 0.00 0.00 0.00 58 822.8
20190423200051 58 0.0 0.0 0.00 0.00 0.00 55 822.8
20190423193036 59 0.0 0.0 0.00 0.00 0.00 53 822.8
20190423190028 59 0.0 0.0 0.00 0.00 0.00 52 822.9
20190423183019 60 0.0 0.0 0.00 0.00 0.00 53 823.0
20190423180109 62 0.0 0.0 0.00 0.00 0.00 51 823.1
20190423173100 64 0.0 0.0 0.00 0.00 0.00 47 823.1
20190423170050 65 0.0 0.0 0.00 0.00 0.00 47 823.1
20190423163039 65 0.0 0.0 0.00 0.00 0.00 47 823.1
20190423160030 66 0.0 0.0 0.00 0.00 0.00 45 823.3
20190423153020 67 0.0 0.0 0.00 0.00 0.00 42 823.4
20190423150112 68 0.0 0.0 0.00 0.00 0.00 42 823.5
20190423143104 69 0.0 0.0 0.00 0.00 0.00 40 823.7
20190423140054 70 0.0 0.0 0.00 2.96 0.00 40 823.8
20190423133044 70 0.0 0.0 0.00 2.96 0.00 40 824.0
20190423130033 70 0.0 0.0 0.00 2.96 0.00 40 824.1
20190423123023 70 0.0 0.0 0.00 2.96 0.00 40 824.2
20190423120115 71 0.0 0.0 0.00 2.96 0.00 40 824.2
20190423113104 72 0.0 0.0 0.00 2.96 0.00 38 824.4
20190423110056 70 0.0 0.0 0.00 2.96 0.00 41 824.6
20190423103053 68 0.0 0.0 0.00 2.96 0.00 43 824.6
20190423100038 66 0.0 0.0 0.00 2.96 0.00 49 824.8
20190423093028 64 0.0 0.0 0.00 2.96 0.00 52 824.8
20190423090017 61 0.0 0.0 0.00 2.96 0.00 55 825.0
20190423083107 58 0.0 0.0 0.00 2.96 0.00 61 824.8
20190423080058 56 0.0 0.0 0.00 2.96 0.00 64 824.8
20190423073048 55 0.0 0.0 0.00 2.96 0.00 66 825.0
20190423070040 55 0.0 0.0 0.00 2.96 0.00 67 825.1
20190423063031 54 0.0 0.0 0.00 2.96 0.00 68 825.1
20190423060021 53 0.0 0.0 0.00 2.96 0.00 68 825.2
20190423053112 53 0.0 0.0 0.00 2.96 0.00 67 825.1
20190423050102 53 0.0 0.0 0.00 2.96 0.00 65 825.1